sensor_id;sensor_type;location;lat;lon;timestamp;P1;durP1;ratioP1;P2;durP2;ratioP2
13309;SDS011;6723;48.256;16.402;2022-09-12T00:01:57;8.40;;;5.50;;
13309;SDS011;6723;48.256;16.402;2022-09-12T00:04:23;5.97;;;5.37;;
13309;SDS011;6723;48.256;16.402;2022-09-12T00:06:52;9.43;;;4.77;;
13309;SDS011;6723;48.256;16.402;2022-09-12T00:09:18;6.10;;;5.50;;
13309;SDS011;6723;48.256;16.402;2022-09-12T00:11:44;5.97;;;5.30;;
13309;SDS011;6723;48.256;16.402;2022-09-12T00:14:13;6.20;;;5.23;;
13309;SDS011;6723;48.256;16.402;2022-09-12T00:16:40;8.83;;;5.77;;
13309;SDS011;6723;48.256;16.402;2022-09-12T00:19:07;7.33;;;5.70;;
13309;SDS011;6723;48.256;16.402;2022-09-12T00:21:34;8.23;;;5.63;;
13309;SDS011;6723;48.256;16.402;2022-09-12T00:24:01;6.53;;;5.07;;
13309;SDS011;6723;48.256;16.402;2022-09-12T00:26:27;5.20;;;4.70;;
13309;SDS011;6723;48.256;16.402;2022-09-12T00:28:53;5.57;;;5.07;;
13309;SDS011;6723;48.256;16.402;2022-09-12T00:31:20;6.93;;;4.77;;
13309;SDS011;6723;48.256;16.402;2022-09-12T00:33:49;6.63;;;4.87;;
13309;SDS011;6723;48.256;16.402;2022-09-12T00:36:16;5.70;;;4.93;;
13309;SDS011;6723;48.256;16.402;2022-09-12T00:38:44;5.73;;;4.80;;
13309;SDS011;6723;48.256;16.402;2022-09-12T00:43:49;5.20;;;4.70;;
13309;SDS011;6723;48.256;16.402;2022-09-12T00:51:53;4.60;;;4.10;;
13309;SDS011;6723;48.256;16.402;2022-09-12T00:54:29;4.70;;;4.17;;
13309;SDS011;6723;48.256;16.402;2022-09-12T00:56:59;4.50;;;4.10;;
13309;SDS011;6723;48.256;16.402;2022-09-12T00:59:36;5.63;;;4.60;;
13309;SDS011;6723;48.256;16.402;2022-09-12T01:02:05;5.73;;;4.17;;
13309;SDS011;6723;48.256;16.402;2022-09-12T01:04:32;4.77;;;4.27;;
13309;SDS011;6723;48.256;16.402;2022-09-12T01:07:01;5.43;;;4.23;;
13309;SDS011;6723;48.256;16.402;2022-09-12T01:09:29;7.67;;;4.20;;
13309;SDS011;6723;48.256;16.402;2022-09-12T01:11:55;5.60;;;4.10;;
13309;SDS011;6723;48.256;16.402;2022-09-12T01:14:22;5.70;;;3.97;;
13309;SDS011;6723;48.256;16.402;2022-09-12T01:16:48;5.00;;;4.50;;
13309;SDS011;6723;48.256;16.402;2022-09-12T01:21:58;4.50;;;4.10;;
13309;SDS011;6723;48.256;16.402;2022-09-12T01:44:01;5.50;;;4.30;;
13309;SDS011;6723;48.256;16.402;2022-09-12T01:46:34;4.63;;;4.10;;
13309;SDS011;6723;48.256;16.402;2022-09-12T01:49:23;4.57;;;4.13;;
13309;SDS011;6723;48.256;16.402;2022-09-12T01:54:47;4.70;;;4.30;;
13309;SDS011;6723;48.256;16.402;2022-09-12T01:57:17;6.03;;;4.50;;
13309;SDS011;6723;48.256;16.402;2022-09-12T01:59:50;5.20;;;4.30;;
13309;SDS011;6723;48.256;16.402;2022-09-12T02:02:24;5.33;;;4.13;;
13309;SDS011;6723;48.256;16.402;2022-09-12T02:05:08;6.07;;;4.47;;
13309;SDS011;6723;48.256;16.402;2022-09-12T02:07:39;4.83;;;4.43;;
13309;SDS011;6723;48.256;16.402;2022-09-12T02:10:24;4.93;;;4.00;;
13309;SDS011;6723;48.256;16.402;2022-09-12T02:16:03;4.43;;;4.03;;
13309;SDS011;6723;48.256;16.402;2022-09-12T02:18:36;5.70;;;4.67;;
13309;SDS011;6723;48.256;16.402;2022-09-12T02:21:06;4.43;;;4.03;;
13309;SDS011;6723;48.256;16.402;2022-09-12T02:23:33;4.40;;;4.00;;
13309;SDS011;6723;48.256;16.402;2022-09-12T02:26:05;5.07;;;4.40;;
13309;SDS011;6723;48.256;16.402;2022-09-12T02:28:38;5.30;;;4.60;;
13309;SDS011;6723;48.256;16.402;2022-09-12T02:36:15;5.33;;;4.67;;
13309;SDS011;6723;48.256;16.402;2022-09-12T02:38:48;5.73;;;4.90;;
13309;SDS011;6723;48.256;16.402;2022-09-12T02:41:16;5.27;;;4.80;;
13309;SDS011;6723;48.256;16.402;2022-09-12T02:43:44;6.40;;;5.20;;
13309;SDS011;6723;48.256;16.402;2022-09-12T02:46:13;5.40;;;4.90;;
13309;SDS011;6723;48.256;16.402;2022-09-12T02:48:44;6.13;;;5.20;;
13309;SDS011;6723;48.256;16.402;2022-09-12T02:51:10;5.53;;;5.10;;
13309;SDS011;6723;48.256;16.402;2022-09-12T02:53:37;7.70;;;5.50;;
13309;SDS011;6723;48.256;16.402;2022-09-12T02:56:04;5.63;;;5.13;;
13309;SDS011;6723;48.256;16.402;2022-09-12T02:58:33;6.37;;;5.53;;
13309;SDS011;6723;48.256;16.402;2022-09-12T03:06:16;6.53;;;5.90;;
13309;SDS011;6723;48.256;16.402;2022-09-12T03:17:19;7.17;;;6.07;;
13309;SDS011;6723;48.256;16.402;2022-09-12T03:20:00;6.47;;;5.80;;
13309;SDS011;6723;48.256;16.402;2022-09-12T03:22:55;7.50;;;6.70;;
13309;SDS011;6723;48.256;16.402;2022-09-12T03:25:31;6.97;;;6.23;;
13309;SDS011;6723;48.256;16.402;2022-09-12T03:28:09;6.77;;;6.07;;
13309;SDS011;6723;48.256;16.402;2022-09-12T03:30:39;7.33;;;6.57;;
13309;SDS011;6723;48.256;16.402;2022-09-12T03:33:09;8.83;;;6.83;;
13309;SDS011;6723;48.256;16.402;2022-09-12T03:35:37;8.40;;;7.13;;
13309;SDS011;6723;48.256;16.402;2022-09-12T03:38:03;8.80;;;7.83;;
13309;SDS011;6723;48.256;16.402;2022-09-12T03:40:29;8.07;;;7.27;;
13309;SDS011;6723;48.256;16.402;2022-09-12T03:42:55;8.57;;;7.70;;
13309;SDS011;6723;48.256;16.402;2022-09-12T03:45:20;7.87;;;7.07;;
13309;SDS011;6723;48.256;16.402;2022-09-12T03:47:46;8.80;;;7.70;;
13309;SDS011;6723;48.256;16.402;2022-09-12T03:50:12;7.87;;;7.03;;
13309;SDS011;6723;48.256;16.402;2022-09-12T03:52:38;8.53;;;7.73;;
13309;SDS011;6723;48.256;16.402;2022-09-12T03:55:04;13.67;;;10.50;;
13309;SDS011;6723;48.256;16.402;2022-09-12T03:57:30;12.60;;;8.60;;
13309;SDS011;6723;48.256;16.402;2022-09-12T03:59:56;9.70;;;8.70;;
13309;SDS011;6723;48.256;16.402;2022-09-12T04:02:21;12.10;;;8.77;;
13309;SDS011;6723;48.256;16.402;2022-09-12T04:04:47;14.67;;;11.33;;
13309;SDS011;6723;48.256;16.402;2022-09-12T04:07:14;8.53;;;7.53;;
13309;SDS011;6723;48.256;16.402;2022-09-12T04:09:40;9.93;;;7.33;;
13309;SDS011;6723;48.256;16.402;2022-09-12T04:12:06;8.00;;;7.20;;
13309;SDS011;6723;48.256;16.402;2022-09-12T04:14:32;7.53;;;6.73;;
13309;SDS011;6723;48.256;16.402;2022-09-12T04:17:00;9.90;;;7.67;;
13309;SDS011;6723;48.256;16.402;2022-09-12T04:19:27;8.53;;;7.00;;
13309;SDS011;6723;48.256;16.402;2022-09-12T04:21:53;10.47;;;7.97;;
13309;SDS011;6723;48.256;16.402;2022-09-12T04:24:18;8.77;;;7.60;;
13309;SDS011;6723;48.256;16.402;2022-09-12T04:26:44;10.33;;;7.67;;
13309;SDS011;6723;48.256;16.402;2022-09-12T04:29:11;10.60;;;9.57;;
13309;SDS011;6723;48.256;16.402;2022-09-12T04:31:37;11.67;;;9.13;;
13309;SDS011;6723;48.256;16.402;2022-09-12T04:34:03;10.20;;;9.10;;
13309;SDS011;6723;48.256;16.402;2022-09-12T04:36:30;12.00;;;10.70;;
13309;SDS011;6723;48.256;16.402;2022-09-12T04:38:57;11.17;;;9.17;;
13309;SDS011;6723;48.256;16.402;2022-09-12T04:41:25;9.17;;;8.27;;
13309;SDS011;6723;48.256;16.402;2022-09-12T04:43:54;8.33;;;7.50;;
13309;SDS011;6723;48.256;16.402;2022-09-12T04:48:58;8.27;;;7.47;;
13309;SDS011;6723;48.256;16.402;2022-09-12T04:51:28;8.43;;;7.23;;
13309;SDS011;6723;48.256;16.402;2022-09-12T04:54:00;7.97;;;7.17;;
13309;SDS011;6723;48.256;16.402;2022-09-12T04:56:29;8.60;;;7.37;;
13309;SDS011;6723;48.256;16.402;2022-09-12T04:58:56;8.60;;;7.70;;
13309;SDS011;6723;48.256;16.402;2022-09-12T05:01:24;7.97;;;7.17;;
13309;SDS011;6723;48.256;16.402;2022-09-12T05:03:52;7.87;;;7.07;;
13309;SDS011;6723;48.256;16.402;2022-09-12T05:06:19;10.23;;;7.37;;
13309;SDS011;6723;48.256;16.402;2022-09-12T05:08:48;10.47;;;7.07;;
13309;SDS011;6723;48.256;16.402;2022-09-12T05:11:15;8.07;;;7.27;;
13309;SDS011;6723;48.256;16.402;2022-09-12T05:13:43;9.53;;;7.20;;
13309;SDS011;6723;48.256;16.402;2022-09-12T05:16:10;7.77;;;6.87;;
13309;SDS011;6723;48.256;16.402;2022-09-12T05:18:39;7.33;;;6.63;;
13309;SDS011;6723;48.256;16.402;2022-09-12T05:21:06;9.13;;;6.50;;
13309;SDS011;6723;48.256;16.402;2022-09-12T05:23:34;9.80;;;6.33;;
13309;SDS011;6723;48.256;16.402;2022-09-12T05:26:01;7.67;;;6.70;;
13309;SDS011;6723;48.256;16.402;2022-09-12T05:28:29;9.17;;;6.27;;
13309;SDS011;6723;48.256;16.402;2022-09-12T05:33:26;7.40;;;6.20;;
13309;SDS011;6723;48.256;16.402;2022-09-12T05:35:52;8.43;;;6.47;;
13309;SDS011;6723;48.256;16.402;2022-09-12T05:38:18;8.83;;;6.20;;
13309;SDS011;6723;48.256;16.402;2022-09-12T05:40:44;7.03;;;6.07;;
13309;SDS011;6723;48.256;16.402;2022-09-12T05:43:10;8.30;;;6.13;;
13309;SDS011;6723;48.256;16.402;2022-09-12T05:45:38;6.60;;;5.97;;
13309;SDS011;6723;48.256;16.402;2022-09-12T05:48:05;6.77;;;6.07;;
13309;SDS011;6723;48.256;16.402;2022-09-12T05:50:31;6.63;;;5.97;;
13309;SDS011;6723;48.256;16.402;2022-09-12T05:52:57;7.53;;;5.80;;
13309;SDS011;6723;48.256;16.402;2022-09-12T05:55:22;8.97;;;6.13;;
13309;SDS011;6723;48.256;16.402;2022-09-12T05:57:48;5.93;;;5.43;;
13309;SDS011;6723;48.256;16.402;2022-09-12T06:00:15;6.50;;;5.90;;
13309;SDS011;6723;48.256;16.402;2022-09-12T06:02:41;8.67;;;6.00;;
13309;SDS011;6723;48.256;16.402;2022-09-12T06:05:07;8.53;;;5.63;;
13309;SDS011;6723;48.256;16.402;2022-09-12T06:07:33;6.13;;;5.53;;
13309;SDS011;6723;48.256;16.402;2022-09-12T06:10:00;8.13;;;5.90;;
13309;SDS011;6723;48.256;16.402;2022-09-12T06:12:28;7.17;;;5.60;;
13309;SDS011;6723;48.256;16.402;2022-09-12T06:14:54;6.97;;;5.67;;
13309;SDS011;6723;48.256;16.402;2022-09-12T06:17:20;6.00;;;5.40;;
13309;SDS011;6723;48.256;16.402;2022-09-12T06:19:46;7.07;;;5.40;;
13309;SDS011;6723;48.256;16.402;2022-09-12T06:22:15;6.03;;;5.33;;
13309;SDS011;6723;48.256;16.402;2022-09-12T06:24:42;7.30;;;5.43;;
13309;SDS011;6723;48.256;16.402;2022-09-12T06:27:08;6.53;;;5.70;;
13309;SDS011;6723;48.256;16.402;2022-09-12T06:29:34;5.30;;;4.67;;
13309;SDS011;6723;48.256;16.402;2022-09-12T06:32:00;5.80;;;5.20;;
13309;SDS011;6723;48.256;16.402;2022-09-12T06:34:26;6.47;;;5.63;;
13309;SDS011;6723;48.256;16.402;2022-09-12T06:36:52;6.00;;;5.40;;
13309;SDS011;6723;48.256;16.402;2022-09-12T06:39:19;6.97;;;5.30;;
13309;SDS011;6723;48.256;16.402;2022-09-12T06:41:47;7.03;;;5.00;;
13309;SDS011;6723;48.256;16.402;2022-09-12T06:44:14;6.00;;;4.60;;
13309;SDS011;6723;48.256;16.402;2022-09-12T06:46:43;5.10;;;4.60;;
13309;SDS011;6723;48.256;16.402;2022-09-12T06:49:09;6.17;;;5.30;;
13309;SDS011;6723;48.256;16.402;2022-09-12T06:51:35;5.60;;;4.60;;
13309;SDS011;6723;48.256;16.402;2022-09-12T06:54:01;7.10;;;4.93;;
13309;SDS011;6723;48.256;16.402;2022-09-12T06:56:28;10.20;;;5.53;;
13309;SDS011;6723;48.256;16.402;2022-09-12T06:58:56;5.83;;;4.73;;
13309;SDS011;6723;48.256;16.402;2022-09-12T07:01:32;6.87;;;4.70;;
13309;SDS011;6723;48.256;16.402;2022-09-12T07:04:01;5.77;;;4.83;;
13309;SDS011;6723;48.256;16.402;2022-09-12T07:06:29;5.70;;;4.80;;
13309;SDS011;6723;48.256;16.402;2022-09-12T07:09:00;6.57;;;5.00;;
13309;SDS011;6723;48.256;16.402;2022-09-12T07:11:31;5.47;;;4.93;;
13309;SDS011;6723;48.256;16.402;2022-09-12T07:13:59;5.70;;;5.20;;
13309;SDS011;6723;48.256;16.402;2022-09-12T07:16:27;8.63;;;5.00;;
13309;SDS011;6723;48.256;16.402;2022-09-12T07:18:54;7.87;;;5.67;;
13309;SDS011;6723;48.256;16.402;2022-09-12T07:21:22;6.20;;;5.53;;
13309;SDS011;6723;48.256;16.402;2022-09-12T07:23:49;8.40;;;5.73;;
13309;SDS011;6723;48.256;16.402;2022-09-12T07:26:16;6.97;;;5.90;;
13309;SDS011;6723;48.256;16.402;2022-09-12T07:28:43;10.73;;;6.47;;
13309;SDS011;6723;48.256;16.402;2022-09-12T07:31:10;8.37;;;6.53;;
13309;SDS011;6723;48.256;16.402;2022-09-12T07:33:38;7.17;;;6.30;;
13309;SDS011;6723;48.256;16.402;2022-09-12T07:36:12;8.57;;;6.00;;
13309;SDS011;6723;48.256;16.402;2022-09-12T07:38:39;8.40;;;6.33;;
13309;SDS011;6723;48.256;16.402;2022-09-12T07:41:25;7.07;;;5.87;;
13309;SDS011;6723;48.256;16.402;2022-09-12T07:43:53;8.30;;;6.63;;
13309;SDS011;6723;48.256;16.402;2022-09-12T07:46:21;17.00;;;12.20;;
13309;SDS011;6723;48.256;16.402;2022-09-12T07:48:49;7.87;;;6.47;;
13309;SDS011;6723;48.256;16.402;2022-09-12T07:51:16;6.40;;;5.50;;
13309;SDS011;6723;48.256;16.402;2022-09-12T07:53:43;11.03;;;5.20;;
13309;SDS011;6723;48.256;16.402;2022-09-12T07:56:09;5.93;;;5.00;;
13309;SDS011;6723;48.256;16.402;2022-09-12T07:58:37;5.73;;;4.80;;
13309;SDS011;6723;48.256;16.402;2022-09-12T08:01:10;6.53;;;5.07;;
13309;SDS011;6723;48.256;16.402;2022-09-12T08:03:41;6.40;;;4.80;;
13309;SDS011;6723;48.256;16.402;2022-09-12T08:08:36;5.87;;;4.97;;
13309;SDS011;6723;48.256;16.402;2022-09-12T08:11:06;8.07;;;5.00;;
13309;SDS011;6723;48.256;16.402;2022-09-12T08:13:38;7.63;;;5.10;;
13309;SDS011;6723;48.256;16.402;2022-09-12T08:16:06;6.60;;;5.30;;
13309;SDS011;6723;48.256;16.402;2022-09-12T08:18:33;7.47;;;5.37;;
13309;SDS011;6723;48.256;16.402;2022-09-12T08:21:01;7.73;;;4.93;;
13309;SDS011;6723;48.256;16.402;2022-09-12T08:23:29;7.27;;;4.90;;
13309;SDS011;6723;48.256;16.402;2022-09-12T08:25:56;5.37;;;4.73;;
13309;SDS011;6723;48.256;16.402;2022-09-12T08:28:27;5.20;;;4.57;;
13309;SDS011;6723;48.256;16.402;2022-09-12T08:30:58;4.60;;;4.20;;
13309;SDS011;6723;48.256;16.402;2022-09-12T08:33:26;7.17;;;4.47;;
13309;SDS011;6723;48.256;16.402;2022-09-12T08:36:08;5.60;;;4.40;;
13309;SDS011;6723;48.256;16.402;2022-09-12T08:38:36;6.13;;;4.53;;
13309;SDS011;6723;48.256;16.402;2022-09-12T08:46:35;5.47;;;4.67;;
13309;SDS011;6723;48.256;16.402;2022-09-12T08:49:16;4.87;;;4.20;;
13309;SDS011;6723;48.256;16.402;2022-09-12T08:51:54;8.40;;;4.67;;
13309;SDS011;6723;48.256;16.402;2022-09-12T08:54:25;5.23;;;4.20;;
13309;SDS011;6723;48.256;16.402;2022-09-12T08:57:02;5.50;;;4.53;;
13309;SDS011;6723;48.256;16.402;2022-09-12T08:59:37;5.37;;;4.53;;
13309;SDS011;6723;48.256;16.402;2022-09-12T09:02:21;5.00;;;3.90;;
13309;SDS011;6723;48.256;16.402;2022-09-12T09:18:11;4.93;;;4.43;;
13309;SDS011;6723;48.256;16.402;2022-09-12T09:20:50;6.20;;;4.33;;
13309;SDS011;6723;48.256;16.402;2022-09-12T09:26:10;5.87;;;4.17;;
13309;SDS011;6723;48.256;16.402;2022-09-12T09:28:43;3.73;;;3.43;;
13309;SDS011;6723;48.256;16.402;2022-09-12T09:31:38;5.07;;;4.13;;
13309;SDS011;6723;48.256;16.402;2022-09-12T09:34:38;4.63;;;3.43;;
13309;SDS011;6723;48.256;16.402;2022-09-12T09:45:51;3.93;;;3.63;;
13309;SDS011;6723;48.256;16.402;2022-09-12T09:48:19;4.00;;;3.63;;
13309;SDS011;6723;48.256;16.402;2022-09-12T09:51:04;4.80;;;3.17;;
13309;SDS011;6723;48.256;16.402;2022-09-12T09:56:26;4.43;;;3.40;;
13309;SDS011;6723;48.256;16.402;2022-09-12T10:01:56;4.87;;;3.70;;
13309;SDS011;6723;48.256;16.402;2022-09-12T10:04:32;7.50;;;3.90;;
13309;SDS011;6723;48.256;16.402;2022-09-12T10:07:01;3.93;;;3.50;;
13309;SDS011;6723;48.256;16.402;2022-09-12T10:09:29;4.50;;;3.43;;
13309;SDS011;6723;48.256;16.402;2022-09-12T10:12:45;4.77;;;3.80;;
13309;SDS011;6723;48.256;16.402;2022-09-12T10:14:59;3.47;;;3.17;;
13309;SDS011;6723;48.256;16.402;2022-09-12T10:17:42;3.67;;;3.37;;
13309;SDS011;6723;48.256;16.402;2022-09-12T10:23:34;5.07;;;3.27;;
13309;SDS011;6723;48.256;16.402;2022-09-12T10:26:02;4.43;;;3.53;;
13309;SDS011;6723;48.256;16.402;2022-09-12T10:28:40;5.43;;;3.37;;
13309;SDS011;6723;48.256;16.402;2022-09-12T10:31:28;3.87;;;3.37;;
13309;SDS011;6723;48.256;16.402;2022-09-12T10:34:03;6.43;;;4.10;;
13309;SDS011;6723;48.256;16.402;2022-09-12T10:36:36;5.23;;;3.53;;
13309;SDS011;6723;48.256;16.402;2022-09-12T10:39:04;3.83;;;3.50;;
13309;SDS011;6723;48.256;16.402;2022-09-12T10:41:37;6.53;;;3.10;;
13309;SDS011;6723;48.256;16.402;2022-09-12T10:44:06;4.23;;;3.60;;
13309;SDS011;6723;48.256;16.402;2022-09-12T10:46:38;3.37;;;2.83;;
13309;SDS011;6723;48.256;16.402;2022-09-12T10:49:21;4.50;;;3.43;;
13309;SDS011;6723;48.256;16.402;2022-09-12T10:51:51;4.03;;;3.53;;
13309;SDS011;6723;48.256;16.402;2022-09-12T10:54:24;6.37;;;3.47;;
13309;SDS011;6723;48.256;16.402;2022-09-12T11:10:53;4.03;;;3.70;;
13309;SDS011;6723;48.256;16.402;2022-09-12T11:13:40;5.63;;;3.50;;
13309;SDS011;6723;48.256;16.402;2022-09-12T11:30:35;4.67;;;4.00;;
13309;SDS011;6723;48.256;16.402;2022-09-12T11:36:56;7.47;;;4.63;;
13309;SDS011;6723;48.256;16.402;2022-09-12T11:41:38;4.30;;;3.70;;
13309;SDS011;6723;48.256;16.402;2022-09-12T11:44:16;3.63;;;3.30;;
13309;SDS011;6723;48.256;16.402;2022-09-12T11:49:39;8.75;;;3.28;;
13309;SDS011;6723;48.256;16.402;2022-09-12T11:52:22;10.23;;;3.30;;
13309;SDS011;6723;48.256;16.402;2022-09-12T11:55:03;3.65;;;3.08;;
13309;SDS011;6723;48.256;16.402;2022-09-12T11:57:48;3.35;;;2.70;;
13309;SDS011;6723;48.256;16.402;2022-09-12T12:08:45;4.00;;;2.75;;
13309;SDS011;6723;48.256;16.402;2022-09-12T12:11:30;2.90;;;2.67;;
13309;SDS011;6723;48.256;16.402;2022-09-12T12:14:03;2.80;;;2.60;;
13309;SDS011;6723;48.256;16.402;2022-09-12T12:16:50;8.65;;;3.05;;
13309;SDS011;6723;48.256;16.402;2022-09-12T12:21:49;3.90;;;3.13;;
13309;SDS011;6723;48.256;16.402;2022-09-12T12:24:20;10.98;;;4.70;;
13309;SDS011;6723;48.256;16.402;2022-09-12T12:26:57;5.93;;;3.85;;
13309;SDS011;6723;48.256;16.402;2022-09-12T12:29:35;4.28;;;3.08;;
13309;SDS011;6723;48.256;16.402;2022-09-12T12:34:33;7.50;;;3.67;;
13309;SDS011;6723;48.256;16.402;2022-09-12T12:44:56;9.43;;;5.73;;
13309;SDS011;6723;48.256;16.402;2022-09-12T12:47:27;7.77;;;5.27;;
13309;SDS011;6723;48.256;16.402;2022-09-12T12:49:56;8.47;;;5.70;;
13309;SDS011;6723;48.256;16.402;2022-09-12T12:52:30;8.53;;;4.20;;
13309;SDS011;6723;48.256;16.402;2022-09-12T12:55:13;7.13;;;4.27;;
13309;SDS011;6723;48.256;16.402;2022-09-12T12:57:55;4.43;;;3.20;;
13309;SDS011;6723;48.256;16.402;2022-09-12T13:05:26;11.53;;;3.90;;
13309;SDS011;6723;48.256;16.402;2022-09-12T13:08:05;4.33;;;2.97;;
13309;SDS011;6723;48.256;16.402;2022-09-12T13:10:32;7.47;;;3.47;;
13309;SDS011;6723;48.256;16.402;2022-09-12T13:12:59;6.10;;;3.30;;
13309;SDS011;6723;48.256;16.402;2022-09-12T13:18:15;3.90;;;3.50;;
13309;SDS011;6723;48.256;16.402;2022-09-12T13:21:32;6.17;;;3.37;;
13309;SDS011;6723;48.256;16.402;2022-09-12T13:24:10;6.43;;;3.70;;
13309;SDS011;6723;48.256;16.402;2022-09-12T13:26:41;3.90;;;3.43;;
13309;SDS011;6723;48.256;16.402;2022-09-12T13:29:13;6.67;;;3.70;;
13309;SDS011;6723;48.256;16.402;2022-09-12T13:31:47;9.23;;;3.93;;
13309;SDS011;6723;48.256;16.402;2022-09-12T13:34:21;5.73;;;3.73;;
13309;SDS011;6723;48.256;16.402;2022-09-12T13:39:28;6.20;;;5.60;;
13309;SDS011;6723;48.256;16.402;2022-09-12T13:44:57;7.60;;;3.20;;
13309;SDS011;6723;48.256;16.402;2022-09-12T13:47:49;5.87;;;3.30;;
13309;SDS011;6723;48.256;16.402;2022-09-12T13:50:21;9.40;;;3.53;;
13309;SDS011;6723;48.256;16.402;2022-09-12T13:52:50;6.73;;;3.13;;
13309;SDS011;6723;48.256;16.402;2022-09-12T13:55:33;9.57;;;3.33;;
13309;SDS011;6723;48.256;16.402;2022-09-12T13:58:05;5.33;;;3.40;;
13309;SDS011;6723;48.256;16.402;2022-09-12T14:00:37;4.17;;;3.07;;
13309;SDS011;6723;48.256;16.402;2022-09-12T14:03:12;7.13;;;3.73;;
13309;SDS011;6723;48.256;16.402;2022-09-12T14:06:10;5.10;;;3.03;;
13309;SDS011;6723;48.256;16.402;2022-09-12T14:08:41;9.03;;;3.40;;
13309;SDS011;6723;48.256;16.402;2022-09-12T14:11:11;8.60;;;3.23;;
13309;SDS011;6723;48.256;16.402;2022-09-12T14:13:54;7.20;;;3.43;;
13309;SDS011;6723;48.256;16.402;2022-09-12T14:16:20;7.13;;;2.93;;
13309;SDS011;6723;48.256;16.402;2022-09-12T14:18:48;7.70;;;3.00;;
13309;SDS011;6723;48.256;16.402;2022-09-12T14:23:44;17.63;;;3.80;;
13309;SDS011;6723;48.256;16.402;2022-09-12T14:26:13;19.27;;;3.40;;
13309;SDS011;6723;48.256;16.402;2022-09-12T14:28:42;12.03;;;3.10;;
13309;SDS011;6723;48.256;16.402;2022-09-12T14:33:46;8.33;;;3.27;;
13309;SDS011;6723;48.256;16.402;2022-09-12T14:38:51;4.53;;;2.53;;
13309;SDS011;6723;48.256;16.402;2022-09-12T14:41:22;4.17;;;3.40;;
13309;SDS011;6723;48.256;16.402;2022-09-12T14:43:58;7.93;;;3.23;;
13309;SDS011;6723;48.256;16.402;2022-09-12T14:46:32;3.70;;;3.07;;
13309;SDS011;6723;48.256;16.402;2022-09-12T14:49:05;4.63;;;3.40;;
13309;SDS011;6723;48.256;16.402;2022-09-12T14:56:53;10.20;;;3.53;;
13309;SDS011;6723;48.256;16.402;2022-09-12T14:59:25;6.17;;;3.03;;
13309;SDS011;6723;48.256;16.402;2022-09-12T15:02:20;8.90;;;3.37;;
13309;SDS011;6723;48.256;16.402;2022-09-12T15:07:33;3.93;;;3.60;;
13309;SDS011;6723;48.256;16.402;2022-09-12T15:10:03;6.77;;;3.10;;
13309;SDS011;6723;48.256;16.402;2022-09-12T15:12:38;6.70;;;3.50;;
13309;SDS011;6723;48.256;16.402;2022-09-12T15:17:44;3.03;;;2.63;;
13309;SDS011;6723;48.256;16.402;2022-09-12T15:20:10;4.87;;;2.63;;
13309;SDS011;6723;48.256;16.402;2022-09-12T15:22:37;5.33;;;2.70;;
13309;SDS011;6723;48.256;16.402;2022-09-12T15:25:05;11.50;;;2.60;;
13309;SDS011;6723;48.256;16.402;2022-09-12T15:27:31;5.80;;;2.60;;
13309;SDS011;6723;48.256;16.402;2022-09-12T15:29:57;8.80;;;2.60;;
13309;SDS011;6723;48.256;16.402;2022-09-12T15:32:25;5.87;;;2.50;;
13309;SDS011;6723;48.256;16.402;2022-09-12T15:34:53;3.47;;;2.40;;
13309;SDS011;6723;48.256;16.402;2022-09-12T15:37:19;7.87;;;2.57;;
13309;SDS011;6723;48.256;16.402;2022-09-12T15:39:47;4.03;;;2.83;;
13309;SDS011;6723;48.256;16.402;2022-09-12T15:42:14;3.07;;;2.57;;
13309;SDS011;6723;48.256;16.402;2022-09-12T15:44:41;5.90;;;2.80;;
13309;SDS011;6723;48.256;16.402;2022-09-12T15:47:11;7.07;;;2.90;;
13309;SDS011;6723;48.256;16.402;2022-09-12T15:49:38;3.27;;;2.90;;
13309;SDS011;6723;48.256;16.402;2022-09-12T15:52:05;6.03;;;3.73;;
13309;SDS011;6723;48.256;16.402;2022-09-12T15:54:32;5.43;;;3.17;;
13309;SDS011;6723;48.256;16.402;2022-09-12T15:56:58;6.87;;;4.30;;
13309;SDS011;6723;48.256;16.402;2022-09-12T15:59:23;3.67;;;2.87;;
13309;SDS011;6723;48.256;16.402;2022-09-12T16:01:49;5.43;;;3.97;;
13309;SDS011;6723;48.256;16.402;2022-09-12T16:04:25;5.50;;;4.23;;
13309;SDS011;6723;48.256;16.402;2022-09-12T16:06:53;5.87;;;3.87;;
13309;SDS011;6723;48.256;16.402;2022-09-12T16:09:20;6.60;;;3.50;;
13309;SDS011;6723;48.256;16.402;2022-09-12T16:11:48;6.20;;;3.80;;
13309;SDS011;6723;48.256;16.402;2022-09-12T16:14:15;5.33;;;3.90;;
13309;SDS011;6723;48.256;16.402;2022-09-12T16:16:43;5.23;;;3.70;;
13309;SDS011;6723;48.256;16.402;2022-09-12T16:19:15;6.27;;;3.83;;
13309;SDS011;6723;48.256;16.402;2022-09-12T16:21:41;5.00;;;4.13;;
13309;SDS011;6723;48.256;16.402;2022-09-12T16:24:07;7.87;;;4.47;;
13309;SDS011;6723;48.256;16.402;2022-09-12T16:26:32;5.97;;;5.37;;
13309;SDS011;6723;48.256;16.402;2022-09-12T16:28:58;7.17;;;5.97;;
13309;SDS011;6723;48.256;16.402;2022-09-12T16:31:24;6.17;;;5.57;;
13309;SDS011;6723;48.256;16.402;2022-09-12T16:33:51;6.67;;;5.60;;
13309;SDS011;6723;48.256;16.402;2022-09-12T16:36:18;5.30;;;4.80;;
13309;SDS011;6723;48.256;16.402;2022-09-12T16:38:50;5.80;;;5.07;;
13309;SDS011;6723;48.256;16.402;2022-09-12T16:41:18;5.27;;;4.77;;
13309;SDS011;6723;48.256;16.402;2022-09-12T16:43:45;10.03;;;7.20;;
13309;SDS011;6723;48.256;16.402;2022-09-12T16:46:13;9.93;;;7.47;;
13309;SDS011;6723;48.256;16.402;2022-09-12T16:48:41;7.87;;;7.07;;
13309;SDS011;6723;48.256;16.402;2022-09-12T16:51:09;6.13;;;5.50;;
13309;SDS011;6723;48.256;16.402;2022-09-12T16:53:35;6.43;;;5.37;;
13309;SDS011;6723;48.256;16.402;2022-09-12T16:56:05;6.70;;;4.87;;
13309;SDS011;6723;48.256;16.402;2022-09-12T16:58:33;4.90;;;4.40;;
13309;SDS011;6723;48.256;16.402;2022-09-12T17:01:02;5.87;;;4.27;;
13309;SDS011;6723;48.256;16.402;2022-09-12T17:03:29;4.80;;;4.30;;
13309;SDS011;6723;48.256;16.402;2022-09-12T17:06:37;6.87;;;4.60;;
13309;SDS011;6723;48.256;16.402;2022-09-12T17:08:45;4.50;;;4.07;;
13309;SDS011;6723;48.256;16.402;2022-09-12T17:11:14;9.03;;;6.67;;
13309;SDS011;6723;48.256;16.402;2022-09-12T17:13:45;7.40;;;6.37;;
13309;SDS011;6723;48.256;16.402;2022-09-12T17:16:12;5.30;;;4.80;;
13309;SDS011;6723;48.256;16.402;2022-09-12T17:18:38;4.90;;;4.37;;
13309;SDS011;6723;48.256;16.402;2022-09-12T17:21:04;5.73;;;4.77;;
13309;SDS011;6723;48.256;16.402;2022-09-12T17:23:31;5.57;;;4.30;;
13309;SDS011;6723;48.256;16.402;2022-09-12T17:25:58;5.27;;;4.40;;
13309;SDS011;6723;48.256;16.402;2022-09-12T17:28:24;5.33;;;4.63;;
13309;SDS011;6723;48.256;16.402;2022-09-12T17:30:55;6.73;;;4.70;;
13309;SDS011;6723;48.256;16.402;2022-09-12T17:33:22;10.97;;;7.07;;
13309;SDS011;6723;48.256;16.402;2022-09-12T17:35:49;8.40;;;4.50;;
13309;SDS011;6723;48.256;16.402;2022-09-12T17:38:15;5.57;;;3.93;;
13309;SDS011;6723;48.256;16.402;2022-09-12T17:40:41;5.97;;;4.40;;
13309;SDS011;6723;48.256;16.402;2022-09-12T17:43:08;4.40;;;4.00;;
13309;SDS011;6723;48.256;16.402;2022-09-12T17:45:36;4.87;;;4.37;;
13309;SDS011;6723;48.256;16.402;2022-09-12T17:48:02;4.83;;;3.90;;
13309;SDS011;6723;48.256;16.402;2022-09-12T17:50:38;5.00;;;3.80;;
13309;SDS011;6723;48.256;16.402;2022-09-12T17:53:05;5.07;;;3.97;;
13309;SDS011;6723;48.256;16.402;2022-09-12T17:55:36;4.63;;;4.07;;
13309;SDS011;6723;48.256;16.402;2022-09-12T17:58:03;5.50;;;4.10;;
13309;SDS011;6723;48.256;16.402;2022-09-12T18:00:29;8.23;;;4.23;;
13309;SDS011;6723;48.256;16.402;2022-09-12T18:03:14;4.53;;;4.13;;
13309;SDS011;6723;48.256;16.402;2022-09-12T18:06:13;9.97;;;4.40;;
13309;SDS011;6723;48.256;16.402;2022-09-12T18:08:32;44.17;;;21.60;;
13309;SDS011;6723;48.256;16.402;2022-09-12T18:11:04;17.07;;;8.90;;
13309;SDS011;6723;48.256;16.402;2022-09-12T18:13:31;12.20;;;7.67;;
13309;SDS011;6723;48.256;16.402;2022-09-12T18:16:04;21.70;;;10.87;;
13309;SDS011;6723;48.256;16.402;2022-09-12T18:18:32;34.17;;;13.77;;